Time;durP1;ratioP1;P1;durP2;ratioP2;P2;SDS_P1;SDS_P2;PMS_P1;PMS_P2;Temp;Humidity;BMP_temperature;BMP_pressure;BME280_temperature;BME280_humidity;BME280_pressure;Samples;Min_cycle;Max_cycle;Signal;HPM_P1;HPM_P2
2021/12/22 00:00:09;;;;;;;24.55;12.70;;;0.80;71.70;;;;;;4985492;28;20099;-69
2021/12/22 00:02:36;;;;;;;22.92;13.60;;;0.70;71.80;;;;;;4991871;28;20022;-69
2021/12/22 00:05:02;;;;;;;24.33;13.82;;;0.80;71.90;;;;;;4992893;28;20027;-70
2021/12/22 00:07:27;;;;;;;24.85;13.90;;;0.80;72.00;;;;;;4992990;28;20062;-69
2021/12/22 00:09:53;;;;;;;22.00;12.63;;;0.70;71.90;;;;;;4992485;28;20100;-69
2021/12/22 00:12:19;;;;;;;26.42;13.43;;;0.70;71.90;;;;;;4991676;28;20089;-69
2021/12/22 00:14:44;;;;;;;19.13;12.13;;;0.70;71.80;;;;;;4993227;28;20449;-70
2021/12/22 00:17:10;;;;;;;24.70;13.10;;;0.70;71.80;;;;;;4991047;28;20493;-69
2021/12/22 00:19:36;;;;;;;23.15;13.13;;;0.70;71.70;;;;;;4994554;28;20050;-69
2021/12/22 00:22:02;;;;;;;22.63;13.85;;;0.60;71.70;;;;;;4981491;28;20041;-69
2021/12/22 00:24:28;;;;;;;22.25;12.70;;;0.60;71.90;;;;;;4991777;28;20034;-69
2021/12/22 00:26:54;;;;;;;21.67;13.13;;;0.60;71.80;;;;;;4992185;28;20033;-69
2021/12/22 00:29:20;;;;;;;22.90;12.32;;;0.60;71.70;;;;;;4992885;28;20022;-69
2021/12/22 00:32:08;;;;;;;21.52;13.27;;;0.50;71.70;;;;;;4992694;28;20034;-69
2021/12/22 00:34:33;;;;;;;25.17;12.55;;;0.50;71.80;;;;;;4985944;28;20035;-70
2021/12/22 00:36:59;;;;;;;20.70;12.95;;;0.50;71.90;;;;;;4972562;28;20406;-69
2021/12/22 00:39:25;;;;;;;23.38;12.95;;;0.50;71.90;;;;;;4985448;28;20490;-70
2021/12/22 00:41:50;;;;;;;25.00;13.77;;;0.50;72.50;;;;;;4990043;28;20043;-72
2021/12/22 00:44:16;;;;;;;24.63;12.57;;;0.40;71.90;;;;;;4974702;28;20077;-71
2021/12/22 00:46:42;;;;;;;23.73;13.60;;;0.40;71.90;;;;;;4992605;28;20030;-71
2021/12/22 00:49:08;;;;;;;27.02;14.02;;;0.40;71.90;;;;;;4992369;28;20018;-72
2021/12/22 00:51:33;;;;;;;23.50;13.40;;;0.40;72.00;;;;;;4992839;28;20039;-73
2021/12/22 00:53:59;;;;;;;22.40;13.43;;;0.40;72.10;;;;;;4992835;28;20097;-73
2021/12/22 00:56:25;;;;;;;24.80;12.73;;;0.30;72.10;;;;;;4991615;28;20026;-71
2021/12/22 00:58:50;;;;;;;22.40;13.27;;;0.30;71.90;;;;;;4992989;28;20142;-71
2021/12/22 01:01:16;;;;;;;23.33;13.65;;;0.30;71.90;;;;;;4990660;28;20037;-71
2021/12/22 01:03:42;;;;;;;23.48;13.13;;;0.30;72.00;;;;;;4992739;28;20134;-70
2021/12/22 01:06:07;;;;;;;23.92;13.70;;;0.30;72.00;;;;;;4990992;28;20023;-70
2021/12/22 01:08:33;;;;;;;22.45;13.07;;;0.30;72.00;;;;;;4992939;28;20476;-70
2021/12/22 01:10:59;;;;;;;22.17;13.13;;;0.30;72.10;;;;;;5011789;28;20112;-71
2021/12/22 01:13:25;;;;;;;23.98;13.63;;;0.20;72.10;;;;;;5010604;28;20056;-70
2021/12/22 01:15:50;;;;;;;25.17;13.05;;;0.20;72.30;;;;;;4992988;28;20066;-70
2021/12/22 01:18:28;;;;;;;18.45;12.48;;;0.20;72.20;;;;;;4978225;28;20035;-70
2021/12/22 01:24:02;;;;;;;21.42;12.27;;;0.20;72.20;;;;;;4970439;28;20034;-70
2021/12/22 01:26:30;;;;;;;19.77;11.90;;;0.20;72.20;;;;;;4968971;28;20042;-71
2021/12/22 01:28:57;;;;;;;20.45;12.23;;;0.20;72.20;;;;;;4983600;28;20050;-70
2021/12/22 01:31:23;;;;;;;24.70;13.13;;;0.10;72.20;;;;;;4975911;28;20077;-70
2021/12/22 01:33:48;;;;;;;23.35;12.63;;;0.10;72.20;;;;;;4973432;28;20482;-72
2021/12/22 01:36:14;;;;;;;18.17;11.07;;;0.10;72.20;;;;;;4980900;28;20026;-72
2021/12/22 01:38:40;;;;;;;22.50;13.13;;;0.10;72.30;;;;;;4991840;28;20208;-70
2021/12/22 01:41:06;;;;;;;22.83;12.32;;;0.10;72.30;;;;;;4978522;28;20390;-72
2021/12/22 01:43:32;;;;;;;23.90;12.25;;;0.10;72.20;;;;;;4972700;28;20050;-71
2021/12/22 01:52:00;;;;;;;23.60;12.10;;;0.00;72.00;;;;;;4972130;28;20042;-71
2021/12/22 01:54:34;;;;;;;22.33;12.75;;;0.00;72.00;;;;;;4972135;28;20022;-70
2021/12/22 01:57:06;;;;;;;23.85;12.10;;;0.00;71.90;;;;;;4982171;28;20031;-71
2021/12/22 01:59:32;;;;;;;20.85;12.75;;;-0.10;72.00;;;;;;4992142;28;20501;-70
2021/12/22 02:01:59;;;;;;;27.65;13.90;;;-0.10;72.70;;;;;;4990970;28;20031;-70
2021/12/22 02:04:25;;;;;;;32.78;15.65;;;-0.10;72.40;;;;;;4991436;28;20401;-71
2021/12/22 02:06:51;;;;;;;33.88;15.60;;;-0.20;72.60;;;;;;4991194;28;20029;-70
2021/12/22 02:09:40;;;;;;;27.63;15.32;;;-0.10;73.00;;;;;;4991306;28;20066;-70
2021/12/22 02:12:07;;;;;;;39.20;16.60;;;-0.10;73.30;;;;;;4991593;28;20072;-70
2021/12/22 02:14:33;;;;;;;32.83;14.98;;;-0.10;73.40;;;;;;4969923;28;20509;-71
2021/12/22 02:16:59;;;;;;;29.85;14.55;;;0.00;73.80;;;;;;4978457;28;20027;-71
2021/12/22 02:19:25;;;;;;;33.55;16.38;;;0.00;73.90;;;;;;4971536;28;20051;-70
2021/12/22 02:21:55;;;;;;;30.65;15.23;;;0.00;74.10;;;;;;4987866;28;20042;-70
2021/12/22 02:24:21;;;;;;;33.45;16.67;;;0.00;74.20;;;;;;4991233;28;20436;-70
2021/12/22 02:26:58;;;;;;;27.20;14.80;;;0.00;74.40;;;;;;4989274;28;20034;-71
2021/12/22 02:29:34;;;;;;;31.88;16.95;;;0.00;74.60;;;;;;4989726;28;20364;-70
2021/12/22 02:32:06;;;;;;;31.02;15.70;;;0.10;74.80;;;;;;4992411;28;20042;-71
2021/12/22 02:34:42;;;;;;;37.05;16.38;;;0.10;74.90;;;;;;5010344;28;20026;-70
2021/12/22 02:37:14;;;;;;;32.20;15.85;;;0.10;74.90;;;;;;5009007;28;20068;-71
2021/12/22 02:39:58;;;;;;;28.60;14.85;;;0.10;74.90;;;;;;5010735;28;20025;-70
2021/12/22 02:42:28;;;;;;;30.85;15.60;;;0.10;74.90;;;;;;5008861;28;20036;-70
2021/12/22 02:44:53;;;;;;;36.13;16.02;;;0.00;74.80;;;;;;4991871;28;20054;-70
2021/12/22 02:47:26;;;;;;;30.65;15.80;;;0.00;74.80;;;;;;4988120;28;20054;-70
2021/12/22 02:49:52;;;;;;;32.15;15.45;;;0.00;74.80;;;;;;4990725;28;20069;-70
2021/12/22 02:52:18;;;;;;;29.17;16.17;;;0.00;74.70;;;;;;4982737;28;20069;-70
2021/12/22 02:54:55;;;;;;;29.73;15.68;;;-0.10;74.60;;;;;;4989303;28;20034;-70
2021/12/22 02:57:37;;;;;;;32.17;14.88;;;0.00;74.60;;;;;;4983470;28;20039;-70
2021/12/22 03:05:17;;;;;;;33.05;14.75;;;-0.10;74.60;;;;;;4990449;28;20036;-72
2021/12/22 03:07:43;;;;;;;30.52;14.55;;;-0.20;74.50;;;;;;4977556;28;20113;-72
2021/12/22 03:10:17;;;;;;;29.10;15.45;;;-0.20;74.40;;;;;;4971131;28;20469;-72
2021/12/22 03:12:44;;;;;;;31.48;15.32;;;-0.20;74.40;;;;;;4984515;28;20125;-72
2021/12/22 03:15:10;;;;;;;26.30;14.48;;;-0.30;74.10;;;;;;4986830;28;20065;-72
2021/12/22 03:17:37;;;;;;;28.48;14.10;;;-0.30;74.10;;;;;;4971556;28;20031;-72
2021/12/22 03:20:06;;;;;;;26.80;13.85;;;-0.30;74.00;;;;;;4969899;28;20058;-71
2021/12/22 03:22:32;;;;;;;27.80;14.18;;;-0.30;74.00;;;;;;4970236;28;20505;-71
2021/12/22 03:24:58;;;;;;;29.13;14.52;;;-0.30;74.00;;;;;;4969808;28;20406;-71
2021/12/22 03:27:24;;;;;;;27.95;14.48;;;-0.30;74.00;;;;;;4987873;28;20061;-72
2021/12/22 03:29:51;;;;;;;24.42;13.52;;;-0.40;74.00;;;;;;4971002;28;20502;-72
2021/12/22 03:32:17;;;;;;;23.10;12.93;;;-0.40;73.90;;;;;;4969271;28;20034;-72
2021/12/22 03:34:43;;;;;;;30.65;14.50;;;-0.40;73.80;;;;;;4968552;28;20047;-72
2021/12/22 03:37:10;;;;;;;37.88;16.25;;;-0.40;73.70;;;;;;4984530;28;20077;-72
2021/12/22 03:39:37;;;;;;;24.63;13.63;;;-0.50;73.70;;;;;;4988671;28;20057;-71
2021/12/22 03:42:05;;;;;;;28.65;13.98;;;-0.50;73.70;;;;;;4974940;28;20035;-72
2021/12/22 03:44:31;;;;;;;24.80;13.93;;;-0.50;73.60;;;;;;4970306;28;20031;-71
2021/12/22 03:46:59;;;;;;;24.33;12.95;;;-0.50;73.60;;;;;;4978174;28;20030;-72
2021/12/22 03:49:26;;;;;;;27.55;14.00;;;-0.50;73.50;;;;;;4983101;28;20086;-72
2021/12/22 03:51:51;;;;;;;26.77;13.50;;;-0.50;73.50;;;;;;4970299;28;20027;-71
2021/12/22 03:54:17;;;;;;;26.52;13.82;;;-0.60;73.40;;;;;;4969343;28;20413;-72
2021/12/22 03:56:43;;;;;;;26.17;13.63;;;-0.60;73.40;;;;;;4989490;28;20057;-72
2021/12/22 03:59:09;;;;;;;26.40;13.77;;;-0.60;73.40;;;;;;4977406;28;20411;-72
2021/12/22 04:01:35;;;;;;;25.13;13.35;;;-0.60;73.30;;;;;;4989347;28;20039;-72
2021/12/22 04:04:07;;;;;;;26.33;13.07;;;-0.60;73.20;;;;;;4980786;28;20026;-71
2021/12/22 04:06:33;;;;;;;24.40;13.40;;;-0.70;73.10;;;;;;4970049;28;20030;-72
2021/12/22 04:08:59;;;;;;;24.05;12.68;;;-0.70;73.10;;;;;;4969953;28;20081;-71
2021/12/22 04:11:25;;;;;;;23.42;13.05;;;-0.70;73.10;;;;;;4977890;28;20038;-72
2021/12/22 04:13:51;;;;;;;25.23;13.32;;;-0.70;73.10;;;;;;4989662;28;20045;-71
2021/12/22 04:16:17;;;;;;;25.13;12.85;;;-0.70;73.10;;;;;;4986647;28;20158;-72
2021/12/22 04:18:43;;;;;;;26.25;13.05;;;-0.70;73.00;;;;;;4974943;28;20041;-72
2021/12/22 04:21:08;;;;;;;26.58;13.45;;;-0.80;73.00;;;;;;4967857;28;20137;-71
2021/12/22 04:23:34;;;;;;;22.23;11.82;;;-0.80;73.00;;;;;;4970310;28;20565;-71
2021/12/22 04:26:00;;;;;;;25.88;13.60;;;-0.80;73.00;;;;;;4984960;28;20104;-71
2021/12/22 04:28:26;;;;;;;23.70;13.10;;;-0.80;73.10;;;;;;4987576;28;20146;-72
2021/12/22 04:30:51;;;;;;;25.27;13.45;;;-0.80;73.10;;;;;;4973361;28;20028;-71
2021/12/22 04:33:21;;;;;;;24.60;12.93;;;-0.90;73.10;;;;;;4969996;28;20045;-72
2021/12/22 04:35:48;;;;;;;23.02;11.90;;;-0.90;73.20;;;;;;4984835;28;20118;-71
2021/12/22 04:38:14;;;;;;;24.50;12.30;;;-0.90;73.30;;;;;;4986295;28;20031;-72
2021/12/22 04:40:40;;;;;;;27.60;13.13;;;-0.90;73.30;;;;;;4987283;28;20437;-71
2021/12/22 04:43:05;;;;;;;21.60;12.93;;;-0.90;73.30;;;;;;4989554;28;20035;-71
2021/12/22 04:45:31;;;;;;;25.05;13.18;;;-0.90;73.40;;;;;;4978174;28;20027;-72
2021/12/22 04:47:57;;;;;;;24.92;13.13;;;-0.90;73.50;;;;;;4972870;28;20117;-72
2021/12/22 04:50:24;;;;;;;25.90;13.30;;;-0.90;73.60;;;;;;4973929;28;20479;-72
2021/12/22 04:52:59;;;;;;;22.85;12.23;;;-0.90;73.70;;;;;;4973484;28;20030;-72
2021/12/22 04:55:27;;;;;;;25.00;12.00;;;-0.90;73.80;;;;;;4973736;28;20046;-71
2021/12/22 04:57:54;;;;;;;24.63;13.35;;;-0.90;74.00;;;;;;4955792;28;20129;-71
2021/12/22 05:00:21;;;;;;;32.22;14.07;;;-0.90;74.20;;;;;;4984482;28;20097;-72
2021/12/22 05:02:48;;;;;;;24.80;13.73;;;-0.90;74.30;;;;;;4992757;28;20039;-72
2021/12/22 05:05:14;;;;;;;24.20;13.60;;;-0.90;74.40;;;;;;4980045;28;20019;-72
2021/12/22 05:07:39;;;;;;;28.52;14.25;;;-0.90;74.60;;;;;;4972561;28;20042;-71
2021/12/22 05:10:06;;;;;;;31.95;14.13;;;-0.90;74.70;;;;;;4984837;28;20049;-72
2021/12/22 05:12:32;;;;;;;29.35;14.43;;;-0.90;74.80;;;;;;4992190;28;20105;-72
2021/12/22 05:14:58;;;;;;;28.70;14.90;;;-0.90;74.90;;;;;;4977280;28;20027;-71
2021/12/22 05:17:38;;;;;;;32.13;14.68;;;-1.00;75.00;;;;;;4989281;28;20374;-71
2021/12/22 05:20:05;;;;;;;30.38;14.07;;;-1.00;75.10;;;;;;4991453;28;20042;-71
2021/12/22 05:22:31;;;;;;;33.28;15.57;;;-1.00;75.00;;;;;;4990590;28;20142;-71
2021/12/22 05:25:02;;;;;;;31.83;14.63;;;-1.00;75.00;;;;;;4975376;28;20145;-71
2021/12/22 05:27:28;;;;;;;29.17;14.10;;;-1.00;75.10;;;;;;4955283;28;20551;-71
2021/12/22 05:29:54;;;;;;;34.08;15.70;;;-1.00;75.20;;;;;;4973840;28;20031;-71
2021/12/22 05:32:23;;;;;;;33.50;15.90;;;-1.00;75.20;;;;;;4971092;28;20478;-71
2021/12/22 05:34:48;;;;;;;31.48;14.93;;;-1.00;75.30;;;;;;4974987;28;20031;-71
2021/12/22 05:37:14;;;;;;;36.55;15.65;;;-1.00;75.30;;;;;;4972231;28;20030;-71
2021/12/22 05:39:40;;;;;;;31.35;15.35;;;-1.00;75.50;;;;;;4988737;28;20513;-71
2021/12/22 05:42:05;;;;;;;34.53;15.63;;;-1.00;75.60;;;;;;4990506;28;20057;-71
2021/12/22 05:44:31;;;;;;;31.67;14.55;;;-1.00;75.60;;;;;;4989913;28;20444;-71
2021/12/22 05:46:57;;;;;;;35.92;15.57;;;-1.00;75.70;;;;;;4991037;28;20035;-71
2021/12/22 05:49:23;;;;;;;34.70;15.20;;;-1.00;75.70;;;;;;4979605;28;20034;-71
2021/12/22 05:51:48;;;;;;;37.17;14.98;;;-1.00;75.70;;;;;;4970921;28;20395;-71
2021/12/22 05:54:14;;;;;;;31.17;14.57;;;-1.00;75.60;;;;;;4982205;28;20050;-71
2021/12/22 05:56:40;;;;;;;34.20;16.02;;;-1.00;75.60;;;;;;4990324;28;20038;-71
2021/12/22 05:59:05;;;;;;;31.02;14.77;;;-1.00;75.50;;;;;;4981735;28;20038;-70
2021/12/22 06:01:32;;;;;;;33.63;15.55;;;-1.00;75.50;;;;;;4971596;28;20035;-71
2021/12/22 06:03:59;;;;;;;31.40;14.48;;;-1.00;75.50;;;;;;4962715;28;20153;-70
2021/12/22 06:06:26;;;;;;;28.60;14.55;;;-1.00;75.40;;;;;;4990231;28;20101;-69
2021/12/22 06:08:52;;;;;;;30.02;15.77;;;-1.10;75.30;;;;;;4990409;28;20054;-69
2021/12/22 06:11:18;;;;;;;30.02;14.30;;;-1.10;75.30;;;;;;4989673;28;20092;-70
2021/12/22 06:13:43;;;;;;;28.08;13.75;;;-1.10;75.30;;;;;;4984904;28;20038;-69
2021/12/22 06:16:09;;;;;;;29.35;14.20;;;-1.10;75.30;;;;;;4989411;28;20113;-70
2021/12/22 06:18:41;;;;;;;36.63;16.77;;;-1.10;75.90;;;;;;4987009;28;20035;-70
2021/12/22 06:21:07;;;;;;;27.75;13.85;;;-1.10;75.40;;;;;;4988104;28;20061;-70
2021/12/22 06:23:33;;;;;;;32.15;14.55;;;-1.10;75.40;;;;;;4988124;28;20035;-70
2021/12/22 06:25:58;;;;;;;30.02;13.95;;;-1.10;75.30;;;;;;4971366;28;20475;-69
2021/12/22 06:28:24;;;;;;;32.08;16.08;;;-1.10;75.30;;;;;;4972173;28;20027;-69
2021/12/22 06:30:50;;;;;;;31.45;14.60;;;-1.10;75.30;;;;;;4986539;28;20042;-70
2021/12/22 06:33:15;;;;;;;33.25;15.43;;;-1.10;75.30;;;;;;4989464;28;20038;-70
2021/12/22 06:35:41;;;;;;;35.28;15.02;;;-1.20;75.20;;;;;;4988290;28;20037;-70
2021/12/22 06:38:08;;;;;;;31.92;15.63;;;-1.20;75.30;;;;;;4990837;28;20068;-70
2021/12/22 06:40:33;;;;;;;31.48;14.48;;;-1.20;75.40;;;;;;4988961;28;20073;-70
2021/12/22 06:42:59;;;;;;;29.73;14.82;;;-1.20;75.50;;;;;;4990487;28;20493;-70
2021/12/22 06:45:25;;;;;;;33.20;15.93;;;-1.20;75.50;;;;;;4974418;28;20031;-70
2021/12/22 06:47:52;;;;;;;28.67;13.60;;;-1.20;75.40;;;;;;4971286;28;20035;-70
2021/12/22 06:50:18;;;;;;;29.27;15.05;;;-1.20;75.40;;;;;;4984887;28;20104;-70
2021/12/22 06:52:44;;;;;;;28.42;13.98;;;-1.20;75.40;;;;;;4990884;28;20489;-70
2021/12/22 06:55:10;;;;;;;36.50;15.77;;;-1.20;75.30;;;;;;4971603;28;20129;-70
2021/12/22 06:57:36;;;;;;;33.13;16.05;;;-1.20;75.30;;;;;;4989294;28;20027;-70
2021/12/22 07:00:05;;;;;;;29.55;13.70;;;-1.20;75.20;;;;;;4973305;28;20042;-70
2021/12/22 07:02:35;;;;;;;32.17;15.23;;;-1.20;75.10;;;;;;4970270;28;20018;-70
2021/12/22 07:05:02;;;;;;;27.45;13.23;;;-1.30;75.00;;;;;;4985049;28;20038;-70
2021/12/22 07:07:27;;;;;;;34.90;15.82;;;-1.30;75.00;;;;;;4988596;28;20563;-70
2021/12/22 07:09:53;;;;;;;33.13;15.50;;;-1.30;75.00;;;;;;4974211;28;20034;-70
2021/12/22 07:12:19;;;;;;;36.13;17.05;;;-1.30;74.90;;;;;;4984292;28;20042;-70
2021/12/22 07:14:44;;;;;;;34.03;16.83;;;-1.30;74.90;;;;;;4984572;28;20129;-70
2021/12/22 07:17:10;;;;;;;32.60;14.95;;;-1.30;74.90;;;;;;4977090;28;20045;-70
2021/12/22 07:19:36;;;;;;;34.13;16.40;;;-1.40;74.90;;;;;;4984234;28;20051;-70
2021/12/22 07:22:02;;;;;;;34.15;15.45;;;-1.40;74.90;;;;;;4983823;28;20066;-71
2021/12/22 07:24:27;;;;;;;37.83;16.00;;;-1.40;74.90;;;;;;4988820;28;20022;-70
2021/12/22 07:26:53;;;;;;;33.45;15.73;;;-1.40;75.00;;;;;;4989765;28;20466;-70
2021/12/22 07:29:19;;;;;;;37.08;16.25;;;-1.40;75.10;;;;;;4999052;28;20052;-70
2021/12/22 07:31:44;;;;;;;35.92;16.33;;;-1.40;75.10;;;;;;4987559;28;20030;-71
2021/12/22 07:34:27;;;;;;;37.38;17.85;;;-1.40;75.10;;;;;;5005935;28;20076;-70
2021/12/22 07:37:00;;;;;;;34.80;15.63;;;-1.40;75.10;;;;;;4984314;28;20041;-70
2021/12/22 07:39:26;;;;;;;38.13;17.05;;;-1.50;75.10;;;;;;4989186;28;20038;-70
2021/12/22 07:41:52;;;;;;;33.70;16.25;;;-1.40;75.10;;;;;;4982864;28;20035;-70
2021/12/22 07:44:17;;;;;;;36.17;16.85;;;-1.50;75.10;;;;;;4985371;28;20056;-70
2021/12/22 07:46:43;;;;;;;39.25;17.58;;;-1.50;75.20;;;;;;4971893;28;20030;-70
2021/12/22 07:49:09;;;;;;;40.55;18.52;;;-1.50;75.30;;;;;;4986645;28;20026;-70
2021/12/22 07:51:34;;;;;;;38.25;16.73;;;-1.50;75.30;;;;;;4986772;28;20198;-70
2021/12/22 07:54:01;;;;;;;37.83;17.75;;;-1.50;75.40;;;;;;4986819;28;20033;-71
2021/12/22 07:56:27;;;;;;;42.33;17.98;;;-1.50;75.40;;;;;;4971959;28;20357;-71
2021/12/22 07:58:54;;;;;;;39.80;17.40;;;-1.50;75.30;;;;;;4970804;28;20108;-71
2021/12/22 08:01:20;;;;;;;40.13;17.33;;;-1.50;75.30;;;;;;4981789;28;20389;-70
2021/12/22 08:03:45;;;;;;;35.72;15.65;;;-1.50;75.30;;;;;;4970166;28;20031;-71
2021/12/22 08:06:13;;;;;;;34.90;16.13;;;-1.50;75.30;;;;;;4981310;28;20136;-70
2021/12/22 08:08:39;;;;;;;36.33;16.48;;;-1.50;75.30;;;;;;4990380;28;20046;-70
2021/12/22 08:11:05;;;;;;;34.55;16.30;;;-1.50;75.30;;;;;;4972829;28;20033;-70
2021/12/22 08:13:32;;;;;;;34.80;16.08;;;-1.50;75.40;;;;;;4987137;28;20027;-70
2021/12/22 08:15:58;;;;;;;36.67;17.17;;;-1.40;75.50;;;;;;4970972;28;20483;-71
2021/12/22 08:18:24;;;;;;;33.17;16.15;;;-1.50;75.50;;;;;;4969804;28;20034;-70
2021/12/22 08:20:50;;;;;;;37.20;16.20;;;-1.40;75.60;;;;;;4979929;28;20047;-71
2021/12/22 08:23:18;;;;;;;37.85;17.00;;;-1.40;75.80;;;;;;4981836;28;20033;-70
2021/12/22 08:25:47;;;;;;;36.13;16.67;;;-1.40;75.80;;;;;;4992161;28;20118;-70
2021/12/22 08:28:13;;;;;;;35.17;15.98;;;-1.40;75.90;;;;;;4992563;28;20516;-71
2021/12/22 08:30:40;;;;;;;34.63;16.92;;;-1.30;76.00;;;;;;4974700;28;20051;-71
2021/12/22 08:33:13;;;;;;;36.97;16.80;;;-1.30;76.00;;;;;;4975990;28;20042;-71
2021/12/22 08:41:10;;;;;;;33.92;16.42;;;-1.30;76.30;;;;;;4978182;28;20094;-71
2021/12/22 08:43:36;;;;;;;39.05;17.40;;;-1.20;76.30;;;;;;4971985;28;20497;-71
2021/12/22 08:46:02;;;;;;;35.97;16.58;;;-1.20;76.50;;;;;;4987404;28;20030;-71
2021/12/22 08:48:27;;;;;;;40.40;17.70;;;-1.20;76.50;;;;;;4981959;28;20066;-71
2021/12/22 08:50:53;;;;;;;40.45;17.67;;;-1.20;76.70;;;;;;4987109;28;20065;-71
2021/12/22 08:53:19;;;;;;;39.95;18.13;;;-1.10;76.80;;;;;;4978507;28;20033;-71
2021/12/22 08:55:44;;;;;;;42.10;17.98;;;-1.10;76.90;;;;;;4987095;28;20410;-71
2021/12/22 08:58:10;;;;;;;40.22;17.80;;;-1.00;77.00;;;;;;4986958;28;20113;-71
2021/12/22 09:00:38;;;;;;;39.75;18.30;;;-1.00;77.00;;;;;;4988797;28;20018;-71
2021/12/22 09:03:04;;;;;;;46.60;19.20;;;-1.00;77.00;;;;;;4985315;28;20066;-71
2021/12/22 09:05:30;;;;;;;41.33;19.27;;;-0.90;77.00;;;;;;4986850;28;20035;-71
2021/12/22 09:07:56;;;;;;;40.45;19.33;;;-0.90;77.00;;;;;;4989840;28;20500;-71
2021/12/22 09:10:22;;;;;;;41.47;18.90;;;-0.90;77.00;;;;;;4990295;28;20022;-71
2021/12/22 09:12:47;;;;;;;38.22;18.88;;;-0.90;77.10;;;;;;4991270;28;20032;-71
2021/12/22 09:15:15;;;;;;;38.90;19.42;;;-0.80;77.20;;;;;;4990040;28;20034;-71
2021/12/22 09:17:41;;;;;;;40.45;18.08;;;-0.80;77.20;;;;;;4980668;28;20052;-71
2021/12/22 09:20:07;;;;;;;35.75;17.83;;;-0.80;77.30;;;;;;4990004;28;20132;-71
2021/12/22 09:22:33;;;;;;;41.78;19.38;;;-0.70;77.40;;;;;;4990413;28;20466;-71
2021/12/22 09:24:58;;;;;;;36.00;18.02;;;-0.70;77.50;;;;;;4984671;28;20039;-71
2021/12/22 09:27:24;;;;;;;42.13;18.67;;;-0.60;77.50;;;;;;4984769;28;20038;-71
2021/12/22 09:29:50;;;;;;;37.13;17.73;;;-0.60;77.60;;;;;;4973405;28;20224;-71
2021/12/22 09:32:17;;;;;;;39.80;18.60;;;-0.50;77.70;;;;;;4984596;28;20041;-72
2021/12/22 09:34:45;;;;;;;35.80;16.77;;;-0.50;77.80;;;;;;4980792;28;20037;-72
2021/12/22 09:37:12;;;;;;;31.88;15.55;;;-0.40;77.90;;;;;;4986303;28;20030;-72
2021/12/22 09:39:38;;;;;;;29.52;14.73;;;-0.40;78.00;;;;;;4983658;28;20135;-71
2021/12/22 09:42:05;;;;;;;33.78;15.95;;;-0.30;78.20;;;;;;4987844;28;20034;-72
2021/12/22 09:44:33;;;;;;;31.50;16.02;;;-0.30;78.20;;;;;;4988667;28;20033;-70
2021/12/22 09:46:59;;;;;;;29.55;15.20;;;-0.20;78.30;;;;;;4987696;28;20077;-71
2021/12/22 09:52:21;;;;;;;32.42;16.65;;;-0.10;78.40;;;;;;4982646;28;20125;-70
2021/12/22 09:54:52;;;;;;;30.13;14.70;;;-0.10;78.40;;;;;;4990369;28;20031;-71
2021/12/22 09:57:20;;;;;;;30.02;15.45;;;0.00;78.60;;;;;;4989067;28;20029;-75
2021/12/22 09:59:48;;;;;;;25.27;13.25;;;0.00;78.70;;;;;;4984817;28;20027;-71
2021/12/22 10:02:16;;;;;;;27.67;14.82;;;0.00;78.70;;;;;;4986440;28;20497;-71
2021/12/22 10:04:41;;;;;;;26.13;13.60;;;0.10;78.90;;;;;;4982161;28;20477;-71
2021/12/22 10:07:09;;;;;;;27.45;13.75;;;0.10;78.90;;;;;;4979624;28;20488;-72
2021/12/22 10:09:44;;;;;;;27.83;13.40;;;0.30;79.20;;;;;;4987548;28;20034;-72
2021/12/22 10:12:21;;;;;;;28.13;13.52;;;0.30;79.20;;;;;;4989432;28;20023;-71
2021/12/22 10:14:59;;;;;;;25.27;12.98;;;0.40;79.40;;;;;;4988065;28;20444;-72
2021/12/22 10:17:28;;;;;;;24.35;13.45;;;0.40;79.40;;;;;;4987274;28;20037;-71
2021/12/22 10:19:57;;;;;;;23.42;12.88;;;0.50;79.50;;;;;;4988673;28;20073;-72
2021/12/22 10:22:30;;;;;;;22.27;11.70;;;0.50;79.60;;;;;;4989981;28;20038;-72
2021/12/22 10:25:25;;;;;;;26.88;13.23;;;0.60;79.50;;;;;;4982706;28;20030;-71
2021/12/22 10:28:05;;;;;;;25.80;13.13;;;0.70;79.50;;;;;;4978231;28;20035;-71
2021/12/22 10:30:45;;;;;;;26.42;12.68;;;0.80;79.50;;;;;;4978093;28;20478;-72
2021/12/22 10:33:20;;;;;;;20.63;11.98;;;0.90;79.40;;;;;;4990175;28;20121;-72
2021/12/22 10:35:49;;;;;;;24.70;12.85;;;1.00;79.30;;;;;;4989602;28;20026;-72
2021/12/22 10:38:19;;;;;;;21.20;12.20;;;1.10;79.20;;;;;;4981707;28;20026;-72
2021/12/22 10:40:49;;;;;;;22.00;12.05;;;1.10;79.00;;;;;;4971852;28;20039;-72
2021/12/22 10:43:24;;;;;;;22.15;12.80;;;1.20;78.90;;;;;;4973812;28;20026;-72
2021/12/22 10:45:55;;;;;;;21.13;12.20;;;1.30;78.90;;;;;;4983057;28;20373;-72
2021/12/22 10:51:13;;;;;;;23.13;12.85;;;1.40;78.90;;;;;;4989995;28;20045;-72
2021/12/22 10:53:47;;;;;;;23.38;11.98;;;1.40;78.70;;;;;;4989277;28;20110;-72
2021/12/22 10:56:28;;;;;;;21.80;12.13;;;1.50;78.60;;;;;;4984371;28;20058;-72
2021/12/22 10:59:26;;;;;;;20.30;12.25;;;1.70;78.40;;;;;;4986898;28;20053;-72
2021/12/22 11:01:58;;;;;;;18.33;10.93;;;1.80;78.10;;;;;;4963625;28;20047;-72
2021/12/22 11:04:31;;;;;;;22.63;10.82;;;1.90;78.00;;;;;;4988040;28;20015;-72
2021/12/22 11:07:28;;;;;;;23.00;11.85;;;2.00;77.90;;;;;;4989826;28;20112;-72
2021/12/22 11:09:54;;;;;;;22.38;11.82;;;2.00;77.80;;;;;;4989178;28;20113;-72
2021/12/22 11:12:37;;;;;;;22.15;12.13;;;2.00;77.90;;;;;;4990073;28;20053;-72
2021/12/22 11:15:04;;;;;;;21.83;11.85;;;2.00;77.90;;;;;;4990300;28;20586;-72
2021/12/22 11:17:31;;;;;;;21.48;12.10;;;2.10;78.00;;;;;;4991924;28;20023;-72
2021/12/22 11:20:04;;;;;;;20.48;11.45;;;2.10;77.80;;;;;;4997088;28;20065;-73
2021/12/22 11:22:46;;;;;;;20.05;11.90;;;2.30;77.70;;;;;;4989852;28;20530;-72
2021/12/22 11:25:12;;;;;;;19.00;11.55;;;2.40;77.40;;;;;;4990316;28;20050;-73
2021/12/22 11:27:39;;;;;;;19.77;11.93;;;2.50;77.30;;;;;;4986917;28;20446;-73
2021/12/22 11:30:06;;;;;;;19.73;11.65;;;2.80;77.50;;;;;;4989419;28;20030;-72
2021/12/22 11:32:33;;;;;;;16.92;10.98;;;2.90;76.10;;;;;;4976615;28;20034;-72
2021/12/22 11:35:02;;;;;;;21.70;12.15;;;3.00;75.90;;;;;;4984571;28;20109;-73
2021/12/22 11:37:29;;;;;;;20.50;11.23;;;3.10;75.60;;;;;;4988506;28;20318;-73
2021/12/22 11:39:57;;;;;;;16.38;11.35;;;3.10;75.50;;;;;;4988950;28;20026;-73
2021/12/22 11:42:27;;;;;;;19.63;11.13;;;3.20;75.30;;;;;;4988423;28;20034;-73
2021/12/22 11:44:58;;;;;;;15.50;10.88;;;3.40;75.30;;;;;;4980660;28;20113;-73
2021/12/22 11:47:24;;;;;;;13.65;9.65;;;3.70;74.70;;;;;;4988114;28;20023;-72
2021/12/22 11:49:50;;;;;;;16.73;10.27;;;4.20;73.50;;;;;;4988609;28;20041;-73
2021/12/22 11:52:36;;;;;;;16.42;10.48;;;4.40;72.50;;;;;;4988758;28;20030;-73
2021/12/22 11:55:12;;;;;;;16.33;11.30;;;4.50;71.80;;;;;;4989899;28;20084;-73
2021/12/22 11:57:39;;;;;;;19.80;10.93;;;4.80;71.60;;;;;;4985667;28;20030;-73
2021/12/22 12:00:20;;;;;;;14.25;9.65;;;5.30;69.80;;;;;;4991785;28;20030;-73
2021/12/22 12:02:46;;;;;;;15.32;10.07;;;5.70;68.80;;;;;;4992304;28;20416;-73
2021/12/22 12:05:18;;;;;;;15.70;9.02;;;6.10;67.10;;;;;;4993667;28;20023;-73
2021/12/22 12:08:02;;;;;;;13.80;9.18;;;6.60;66.10;;;;;;4990203;28;20033;-73
2021/12/22 12:10:30;;;;;;;13.95;8.98;;;7.10;64.70;;;;;;4991279;28;20509;-73
2021/12/22 12:13:01;;;;;;;16.40;9.38;;;7.70;63.20;;;;;;4983234;28;20038;-73
2021/12/22 12:22:30;;;;;;;12.75;8.32;;;10.20;56.30;;;;;;4984903;28;20095;-73
2021/12/22 12:25:02;;;;;;;14.35;8.50;;;11.00;54.50;;;;;;4990705;28;20093;-73
2021/12/22 12:27:34;;;;;;;12.68;8.30;;;11.50;52.40;;;;;;4990490;28;20035;-73
2021/12/22 12:30:08;;;;;;;13.10;8.52;;;11.90;50.90;;;;;;4988047;28;20026;-73
2021/12/22 12:32:40;;;;;;;12.25;7.88;;;12.20;49.20;;;;;;4989435;28;20035;-73
2021/12/22 12:35:18;;;;;;;11.37;9.00;;;12.30;49.80;;;;;;4991915;28;20046;-73
2021/12/22 12:37:57;;;;;;;13.77;8.75;;;12.60;48.60;;;;;;4987340;28;20113;-73
2021/12/22 12:40:23;;;;;;;12.40;8.80;;;12.80;47.60;;;;;;4977414;28;20042;-73
2021/12/22 12:42:59;;;;;;;13.50;8.40;;;12.60;47.60;;;;;;4973695;28;20040;-72
2021/12/22 12:45:45;;;;;;;11.82;8.50;;;12.10;48.10;;;;;;4984919;28;20030;-73
2021/12/22 12:48:24;;;;;;;11.70;8.65;;;11.70;48.90;;;;;;4989638;28;20030;-72
2021/12/22 12:51:14;;;;;;;11.75;7.97;;;11.30;49.50;;;;;;4987742;28;20397;-72
2021/12/22 12:53:45;;;;;;;12.73;9.25;;;10.90;50.30;;;;;;4986746;28;20109;-72
2021/12/22 12:56:12;;;;;;;12.68;9.55;;;10.40;50.40;;;;;;4983273;28;20493;-72
2021/12/22 12:58:59;;;;;;;14.48;9.45;;;9.80;51.80;;;;;;4969292;28;20437;-72
2021/12/22 13:01:46;;;;;;;17.60;9.88;;;9.00;53.20;;;;;;4990822;28;20032;-72
2021/12/22 13:04:28;;;;;;;12.73;10.02;;;8.40;55.00;;;;;;4991137;28;20031;-72
2021/12/22 13:07:01;;;;;;;15.80;9.65;;;7.80;56.70;;;;;;4985160;28;20034;-72
2021/12/22 13:09:35;;;;;;;15.85;11.30;;;7.40;58.00;;;;;;4989029;28;20591;-73